Time;durP1;ratioP1;P1;durP2;ratioP2;P2;SDS_P1;SDS_P2;PMS_P1;PMS_P2;Temp;Humidity;BMP_temperature;BMP_pressure;BME280_temperature;BME280_humidity;BME280_pressure;Samples;Min_cycle;Max_cycle;Signal;HPM_P1;HPM_P2
2023/09/28 00:02:22;;;;;;;12.43;11.10;;;13.50;99.90;;;;;;6065536;23;20173;-87
2023/09/28 00:04:49;;;;;;;12.52;10.05;;;13.40;99.90;;;;;;6040334;23;20177;-87
2023/09/28 00:07:16;;;;;;;11.93;10.60;;;13.40;99.90;;;;;;6065081;23;20181;-87
2023/09/28 00:09:43;;;;;;;12.95;10.65;;;13.50;99.90;;;;;;6039400;23;20201;-87
2023/09/28 00:12:09;;;;;;;13.02;10.35;;;13.50;99.90;;;;;;6039300;23;20177;-87
2023/09/28 00:14:37;;;;;;;11.75;9.85;;;13.50;99.90;;;;;;6038816;23;20278;-88
2023/09/28 00:17:03;;;;;;;11.93;10.05;;;13.60;99.90;;;;;;6066135;23;20177;-87
2023/09/28 00:19:30;;;;;;;11.68;10.40;;;13.60;99.90;;;;;;6065266;23;20220;-87
2023/09/28 00:21:56;;;;;;;16.00;10.27;;;13.60;99.90;;;;;;6065219;23;20478;-86
2023/09/28 00:24:24;;;;;;;11.20;10.07;;;13.50;99.90;;;;;;6015694;23;20169;-86
2023/09/28 00:26:52;;;;;;;11.20;9.93;;;13.50;99.90;;;;;;6064367;23;20173;-87
2023/09/28 00:29:18;;;;;;;13.85;10.40;;;13.50;99.90;;;;;;6066118;23;20185;-87
2023/09/28 00:31:47;;;;;;;10.82;9.73;;;13.40;99.90;;;;;;6063468;23;20184;-88
2023/09/28 00:34:12;;;;;;;11.00;9.90;;;13.50;99.90;;;;;;6065522;23;20194;-87
2023/09/28 00:36:39;;;;;;;10.80;9.70;;;13.40;99.90;;;;;;6040338;23;20173;-87
2023/09/28 00:39:08;;;;;;;10.75;9.75;;;13.40;99.90;;;;;;6041010;23;20183;-88
2023/09/28 00:41:34;;;;;;;11.68;10.45;;;13.40;99.90;;;;;;6066041;23;20185;-87
2023/09/28 00:44:01;;;;;;;11.57;10.38;;;13.40;99.90;;;;;;6065066;23;20211;-87
2023/09/28 00:46:32;;;;;;;15.35;10.52;;;13.40;99.90;;;;;;6065774;23;20177;-88
2023/09/28 00:49:05;;;;;;;12.23;10.50;;;13.40;99.90;;;;;;6038845;23;20217;-87
2023/09/28 00:51:33;;;;;;;11.57;10.20;;;13.40;99.90;;;;;;6064954;23;20215;-87
2023/09/28 00:54:01;;;;;;;10.65;9.55;;;13.40;99.90;;;;;;6040343;23;20208;-87
2023/09/28 00:56:28;;;;;;;10.65;9.55;;;13.40;99.90;;;;;;6040770;23;20228;-87
2023/09/28 00:58:57;;;;;;;12.05;9.80;;;13.40;99.90;;;;;;6016778;23;20179;-86
2023/09/28 01:01:26;;;;;;;11.32;10.27;;;13.40;99.90;;;;;;6065142;23;20180;-87
2023/09/28 01:03:54;;;;;;;14.10;10.75;;;13.30;99.90;;;;;;6040892;23;20177;-86
2023/09/28 01:06:24;;;;;;;11.40;10.20;;;13.30;99.90;;;;;;6017178;23;20184;-87
2023/09/28 01:08:52;;;;;;;11.18;10.00;;;13.30;99.90;;;;;;6041050;23;20184;-87
2023/09/28 01:11:20;;;;;;;11.45;10.20;;;13.50;99.90;;;;;;6063928;23;20177;-87
2023/09/28 01:13:47;;;;;;;13.18;10.57;;;13.50;99.90;;;;;;6065711;23;20257;-87
2023/09/28 01:16:14;;;;;;;11.43;10.23;;;13.50;99.90;;;;;;6040244;23;20176;-87
2023/09/28 01:18:40;;;;;;;12.20;10.38;;;13.50;99.90;;;;;;6040583;23;20177;-87
2023/09/28 01:21:10;;;;;;;11.95;10.25;;;13.60;99.90;;;;;;6011481;23;20241;-87
2023/09/28 01:23:38;;;;;;;11.25;10.07;;;13.60;99.90;;;;;;6034933;23;20261;-88
2023/09/28 01:26:06;;;;;;;11.15;10.02;;;13.60;99.90;;;;;;6035925;23;20241;-87
2023/09/28 01:28:33;;;;;;;10.85;9.73;;;13.60;99.90;;;;;;6034982;23;20682;-88
2023/09/28 01:30:59;;;;;;;10.95;9.85;;;13.50;99.90;;;;;;6036858;23;20177;-87
2023/09/28 01:33:27;;;;;;;11.05;9.73;;;13.50;99.90;;;;;;6036026;23;20273;-87
2023/09/28 01:35:53;;;;;;;13.52;9.93;;;13.50;99.90;;;;;;6036182;23;20644;-87
2023/09/28 01:38:24;;;;;;;11.40;10.25;;;13.50;99.90;;;;;;6036962;23;20198;-87
2023/09/28 01:40:51;;;;;;;11.48;10.27;;;13.40;99.90;;;;;;6038287;23;20618;-87
2023/09/28 01:43:18;;;;;;;13.63;10.07;;;13.40;99.90;;;;;;6038159;23;20178;-87
2023/09/28 01:45:44;;;;;;;10.15;9.18;;;13.40;99.90;;;;;;6037346;23;20596;-88
2023/09/28 01:48:11;;;;;;;13.23;9.63;;;13.40;99.90;;;;;;6038571;23;20185;-87
2023/09/28 01:50:36;;;;;;;10.90;9.80;;;13.30;99.90;;;;;;6039050;23;20194;-87
2023/09/28 01:53:04;;;;;;;10.63;9.57;;;13.30;99.90;;;;;;6038168;23;20197;-87
2023/09/28 01:55:30;;;;;;;11.15;9.75;;;13.20;99.90;;;;;;6036790;23;20180;-87
2023/09/28 01:57:58;;;;;;;10.70;9.55;;;13.20;99.90;;;;;;6038023;23;20265;-87
2023/09/28 02:00:25;;;;;;;10.95;9.68;;;13.20;99.90;;;;;;6038455;23;20182;-87
2023/09/28 02:02:56;;;;;;;9.57;8.68;;;13.20;99.90;;;;;;6013552;23;20502;-87
2023/09/28 02:05:22;;;;;;;9.45;8.55;;;13.30;99.90;;;;;;6038035;23;20629;-87
2023/09/28 02:07:50;;;;;;;10.20;8.95;;;13.30;99.90;;;;;;6037685;23;20252;-87
2023/09/28 02:10:16;;;;;;;9.45;8.35;;;13.30;99.90;;;;;;6038691;23;20197;-87
2023/09/28 02:12:44;;;;;;;9.68;8.68;;;13.30;99.90;;;;;;6038487;23;20633;-87
2023/09/28 02:15:14;;;;;;;10.25;8.93;;;13.30;99.90;;;;;;6037560;23;20178;-87
2023/09/28 02:17:42;;;;;;;10.05;8.48;;;13.40;99.90;;;;;;6037411;23;20212;-87
2023/09/28 02:20:09;;;;;;;9.38;8.45;;;13.30;99.90;;;;;;6048249;23;20672;-88
2023/09/28 02:22:43;;;;;;;10.02;8.13;;;13.20;99.90;;;;;;6017881;23;20273;-87
2023/09/28 02:25:09;;;;;;;12.48;8.40;;;13.10;99.90;;;;;;6067284;23;20169;-87
2023/09/28 02:27:36;;;;;;;9.95;7.80;;;13.10;99.90;;;;;;6019024;23;20577;-87
2023/09/28 02:30:04;;;;;;;9.88;7.90;;;13.10;99.90;;;;;;6067276;23;20178;-87
2023/09/28 02:32:33;;;;;;;8.88;7.97;;;13.20;99.90;;;;;;6066897;23;20177;-87
2023/09/28 02:34:59;;;;;;;10.05;8.18;;;13.20;99.90;;;;;;6066766;23;20177;-86
2023/09/28 02:37:26;;;;;;;8.73;7.93;;;13.10;99.90;;;;;;6041627;23;20566;-87
2023/09/28 02:39:52;;;;;;;10.30;8.27;;;13.10;99.90;;;;;;6066007;23;20170;-88
2023/09/28 02:42:19;;;;;;;9.40;8.48;;;13.00;99.90;;;;;;6067332;23;20507;-87
2023/09/28 02:44:45;;;;;;;10.93;9.02;;;12.90;99.90;;;;;;6065854;23;20192;-87
2023/09/28 02:47:12;;;;;;;9.45;8.45;;;12.90;99.90;;;;;;6066709;23;20209;-87
2023/09/28 02:49:39;;;;;;;8.52;7.72;;;12.80;99.90;;;;;;6041436;23;20260;-87
2023/09/28 02:52:06;;;;;;;9.40;8.57;;;12.80;99.90;;;;;;6040576;23;20384;-87
2023/09/28 02:54:32;;;;;;;10.90;8.23;;;12.80;99.90;;;;;;6017628;23;20205;-87
2023/09/28 02:57:00;;;;;;;8.45;7.65;;;12.80;99.90;;;;;;6066810;23;20655;-87
2023/09/28 02:59:27;;;;;;;9.00;8.20;;;12.80;99.90;;;;;;6042395;23;20561;-87
2023/09/28 03:01:55;;;;;;;12.13;8.15;;;12.70;99.90;;;;;;6067550;23;20209;-87
2023/09/28 03:04:20;;;;;;;8.50;7.70;;;12.70;99.90;;;;;;6041414;23;20182;-86
2023/09/28 03:06:52;;;;;;;8.90;8.00;;;12.70;99.90;;;;;;6041680;23;20177;-87
2023/09/28 03:09:19;;;;;;;8.73;7.53;;;12.70;99.90;;;;;;6067285;23;20162;-87
2023/09/28 03:11:46;;;;;;;11.05;7.97;;;12.70;99.90;;;;;;6067358;23;20236;-88
2023/09/28 03:14:13;;;;;;;9.93;7.72;;;12.70;99.90;;;;;;6066214;23;20249;-87
2023/09/28 03:16:39;;;;;;;10.18;8.23;;;12.70;99.90;;;;;;6040369;23;20178;-87
2023/09/28 03:19:08;;;;;;;7.93;7.20;;;12.80;99.90;;;;;;6041430;23;20335;-86
2023/09/28 03:21:35;;;;;;;8.15;7.40;;;12.70;99.90;;;;;;6013843;23;20194;-86
2023/09/28 03:24:03;;;;;;;8.57;7.78;;;12.70;99.90;;;;;;6035928;23;20178;-87
2023/09/28 03:26:30;;;;;;;8.13;7.32;;;12.80;99.90;;;;;;6037949;23;20177;-86
2023/09/28 03:28:57;;;;;;;7.78;6.95;;;12.80;99.90;;;;;;6036588;23;20241;-87
2023/09/28 03:31:27;;;;;;;8.80;7.22;;;12.80;99.90;;;;;;6012893;23;20535;-87
2023/09/28 03:33:54;;;;;;;8.50;7.60;;;12.80;99.90;;;;;;6036659;23;20198;-87
2023/09/28 03:36:20;;;;;;;10.00;7.35;;;12.80;99.90;;;;;;6037182;23;20180;-87
2023/09/28 03:38:48;;;;;;;9.02;7.22;;;12.80;99.90;;;;;;6038172;23;20257;-87
2023/09/28 03:41:17;;;;;;;8.73;6.82;;;12.80;99.90;;;;;;6037403;23;20182;-88
2023/09/28 03:43:44;;;;;;;7.90;6.57;;;12.80;99.90;;;;;;6036410;23;20178;-87
2023/09/28 03:46:11;;;;;;;7.90;7.20;;;12.80;99.90;;;;;;6035912;23;20182;-87
2023/09/28 03:48:38;;;;;;;7.72;6.93;;;12.90;99.90;;;;;;6037713;23;20182;-88
2023/09/28 03:51:05;;;;;;;7.50;6.60;;;12.80;99.90;;;;;;6037587;23;20194;-87
2023/09/28 03:53:33;;;;;;;8.88;7.00;;;12.80;99.90;;;;;;6035567;23;20194;-86
2023/09/28 03:56:00;;;;;;;7.13;6.43;;;12.80;99.90;;;;;;6035981;23;20178;-87
2023/09/28 03:58:28;;;;;;;8.15;6.57;;;12.80;99.90;;;;;;6036601;23;20592;-87
2023/09/28 04:00:57;;;;;;;7.22;6.53;;;12.70;99.90;;;;;;6037859;23;20208;-87
2023/09/28 04:03:24;;;;;;;7.32;6.70;;;12.70;99.90;;;;;;6038157;23;20182;-87
2023/09/28 04:05:51;;;;;;;9.07;7.03;;;12.70;99.90;;;;;;6037826;23;20268;-87
2023/09/28 04:08:18;;;;;;;9.73;6.80;;;12.70;99.90;;;;;;6037571;23;20174;-87
2023/09/28 04:10:45;;;;;;;7.85;6.90;;;12.70;99.90;;;;;;6035664;23;20178;-87
2023/09/28 04:13:12;;;;;;;6.95;6.35;;;12.60;99.90;;;;;;6035518;23;20270;-87
2023/09/28 04:18:21;;;;;;;7.40;6.70;;;12.60;99.90;;;;;;6036777;23;20174;-87
2023/09/28 04:20:48;;;;;;;7.30;6.60;;;12.70;99.90;;;;;;6035923;23;20193;-87
2023/09/28 04:23:15;;;;;;;8.85;6.55;;;12.70;99.90;;;;;;6037524;23;20661;-86
2023/09/28 04:25:45;;;;;;;6.97;6.28;;;12.70;99.90;;;;;;6037206;23;20174;-90
2023/09/28 04:28:12;;;;;;;9.43;6.40;;;12.70;99.90;;;;;;6037420;23;20737;-85
2023/09/28 04:30:41;;;;;;;7.05;6.45;;;12.70;99.90;;;;;;6035274;23;20234;-86
2023/09/28 04:33:08;;;;;;;6.75;6.15;;;12.70;99.90;;;;;;6036737;23;20510;-88
2023/09/28 04:35:35;;;;;;;7.03;6.10;;;12.70;99.90;;;;;;6038667;23;20256;-91
2023/09/28 04:38:03;;;;;;;6.55;5.95;;;12.70;99.90;;;;;;6038197;23;20704;-88
2023/09/28 04:40:31;;;;;;;6.90;6.20;;;12.70;99.90;;;;;;6035309;23;20186;-87
2023/09/28 04:42:58;;;;;;;8.43;6.65;;;12.90;99.90;;;;;;6036788;23;20174;-91
2023/09/28 04:50:49;;;;;;;8.88;5.80;;;12.90;99.90;;;;;;5979705;23;20254;-89
2023/09/28 04:53:17;;;;;;;6.07;5.57;;;12.90;99.90;;;;;;6035109;23;20201;-89
2023/09/28 04:55:44;;;;;;;7.40;6.10;;;12.90;99.90;;;;;;6035130;23;20716;-89
2023/09/28 04:58:10;;;;;;;9.05;6.00;;;12.90;99.90;;;;;;6034403;23;20190;-89
2023/09/28 05:00:38;;;;;;;7.55;5.93;;;12.90;99.90;;;;;;6036874;23;20178;-90
2023/09/28 05:03:06;;;;;;;7.50;5.88;;;12.80;99.90;;;;;;6035781;23;20185;-90
2023/09/28 05:05:33;;;;;;;9.27;6.30;;;12.80;99.90;;;;;;6035966;23;20174;-92
2023/09/28 05:08:00;;;;;;;6.85;6.15;;;12.80;99.90;;;;;;6037170;23;20233;-91
2023/09/28 05:10:30;;;;;;;7.22;6.07;;;12.80;99.90;;;;;;6037261;23;20173;-91
2023/09/28 05:12:58;;;;;;;7.30;5.70;;;12.70;99.90;;;;;;6037051;23;20205;-89
2023/09/28 05:15:25;;;;;;;8.57;5.88;;;12.80;99.90;;;;;;6037242;23;20208;-89
2023/09/28 05:17:52;;;;;;;8.13;5.97;;;12.70;99.90;;;;;;6036793;23;20204;-89
2023/09/28 05:20:21;;;;;;;6.13;5.30;;;12.60;99.90;;;;;;6037522;23;20261;-91
2023/09/28 05:22:48;;;;;;;7.10;5.45;;;12.60;99.90;;;;;;6038183;23;20268;-91
2023/09/28 05:25:15;;;;;;;6.57;5.47;;;12.60;99.90;;;;;;6040100;23;20506;-91
2023/09/28 05:27:42;;;;;;;7.30;5.53;;;12.60;99.90;;;;;;6037882;23;20181;-91
2023/09/28 05:30:10;;;;;;;9.50;5.60;;;12.70;99.90;;;;;;6039344;23;20184;-90
2023/09/28 05:32:37;;;;;;;5.95;5.35;;;12.80;99.90;;;;;;6037437;23;20622;-89
2023/09/28 05:35:06;;;;;;;7.63;5.45;;;12.80;99.90;;;;;;6038582;23;20198;-89
2023/09/28 05:37:34;;;;;;;8.95;5.82;;;12.80;99.90;;;;;;6039668;23;20779;-89
2023/09/28 05:40:04;;;;;;;6.90;5.82;;;12.90;99.90;;;;;;6039213;23;20184;-89
2023/09/28 05:42:33;;;;;;;5.93;5.32;;;13.00;99.90;;;;;;6038556;23;20178;-89
2023/09/28 05:45:00;;;;;;;9.50;5.80;;;13.00;99.90;;;;;;6038888;23;20178;-90
2023/09/28 05:47:27;;;;;;;8.70;5.40;;;13.10;99.90;;;;;;6040217;23;20186;-89
2023/09/28 05:49:54;;;;;;;7.35;5.93;;;13.10;99.90;;;;;;6039511;23;20629;-89
2023/09/28 05:52:22;;;;;;;5.78;5.07;;;13.20;99.90;;;;;;6038500;23;20248;-89
2023/09/28 05:54:50;;;;;;;6.07;5.40;;;13.30;99.90;;;;;;6038626;23;20680;-89
2023/09/28 05:57:20;;;;;;;5.65;4.97;;;13.40;99.90;;;;;;6037809;23;20178;-89
2023/09/28 05:59:46;;;;;;;7.22;5.78;;;13.40;99.90;;;;;;6015319;23;20198;-89
2023/09/28 06:02:14;;;;;;;7.72;5.47;;;13.40;99.90;;;;;;6037596;23;20176;-89
2023/09/28 06:04:42;;;;;;;6.22;5.63;;;13.40;99.90;;;;;;6039393;23;20190;-89
2023/09/28 06:07:10;;;;;;;6.55;5.18;;;13.40;99.90;;;;;;6038132;23;20536;-89
2023/09/28 06:09:37;;;;;;;6.07;5.35;;;13.50;99.90;;;;;;6039812;23;20178;-89
2023/09/28 06:14:47;;;;;;;6.32;5.43;;;13.80;99.90;;;;;;6037251;23;20258;-89
2023/09/28 06:17:14;;;;;;;6.00;5.45;;;13.90;99.90;;;;;;6039027;23;20174;-89
2023/09/28 06:19:41;;;;;;;6.03;5.40;;;14.00;99.90;;;;;;6042377;23;20253;-89
2023/09/28 06:22:11;;;;;;;8.32;5.85;;;14.10;99.90;;;;;;6043380;23;20221;-89
2023/09/28 06:24:39;;;;;;;6.72;5.90;;;14.10;99.90;;;;;;6067269;23;20562;-89
2023/09/28 06:29:52;;;;;;;7.95;6.38;;;14.30;99.90;;;;;;6043123;23;20188;-89
2023/09/28 06:32:19;;;;;;;6.68;5.82;;;14.30;99.90;;;;;;6068469;23;20162;-89
2023/09/28 06:34:46;;;;;;;7.55;5.68;;;14.40;99.90;;;;;;6067212;23;20205;-89
2023/09/28 06:37:13;;;;;;;9.88;5.95;;;14.40;99.90;;;;;;6067883;23;20180;-89
2023/09/28 06:39:40;;;;;;;8.65;5.15;;;14.50;99.90;;;;;;6068337;23;20174;-89
2023/09/28 06:42:08;;;;;;;6.53;5.30;;;14.60;99.90;;;;;;6067948;23;20205;-89
2023/09/28 06:44:36;;;;;;;7.28;5.30;;;14.60;99.90;;;;;;6042779;23;20252;-89
2023/09/28 06:47:03;;;;;;;10.13;5.80;;;14.70;99.90;;;;;;6067795;23;20185;-89
2023/09/28 06:49:29;;;;;;;6.07;5.28;;;14.80;99.90;;;;;;6043205;23;20181;-90
2023/09/28 06:51:56;;;;;;;6.18;5.18;;;15.00;99.90;;;;;;6067993;23;20189;-89
2023/09/28 06:54:23;;;;;;;8.32;5.30;;;15.10;99.90;;;;;;6067180;23;20201;-90
2023/09/28 06:56:50;;;;;;;5.93;4.82;;;15.30;99.90;;;;;;6019306;23;20180;-89
2023/09/28 06:59:19;;;;;;;8.98;5.07;;;15.40;99.90;;;;;;6042362;23;20766;-89
2023/09/28 07:01:47;;;;;;;5.25;4.75;;;15.50;99.90;;;;;;6068083;23;20208;-89
2023/09/28 07:04:13;;;;;;;6.00;5.00;;;15.60;99.90;;;;;;6067518;23;20954;-89
2023/09/28 07:06:40;;;;;;;5.38;4.55;;;15.70;99.90;;;;;;6042857;23;20177;-89
2023/09/28 07:09:08;;;;;;;5.07;4.57;;;15.80;99.90;;;;;;6067659;23;21007;-89
2023/09/28 07:11:35;;;;;;;5.55;4.88;;;15.80;99.90;;;;;;6067879;23;20692;-89
2023/09/28 07:14:02;;;;;;;5.45;4.75;;;15.80;99.90;;;;;;6067708;23;20765;-89
2023/09/28 07:16:31;;;;;;;7.38;4.68;;;15.80;99.90;;;;;;6041838;23;20228;-89
2023/09/28 07:18:58;;;;;;;8.27;4.82;;;15.80;99.90;;;;;;6068057;23;20209;-89
2023/09/28 07:21:25;;;;;;;5.63;4.15;;;15.90;99.90;;;;;;6066534;23;20188;-89
2023/09/28 07:23:52;;;;;;;4.53;4.13;;;15.90;99.90;;;;;;6042339;23;20187;-89
2023/09/28 07:26:19;;;;;;;4.85;4.20;;;15.90;99.90;;;;;;6066831;23;20776;-89
2023/09/28 07:28:46;;;;;;;4.90;4.20;;;15.90;99.90;;;;;;6067011;23;20177;-89
2023/09/28 07:31:13;;;;;;;7.57;4.13;;;15.80;99.90;;;;;;6041714;23;20181;-89
2023/09/28 07:33:41;;;;;;;5.07;4.00;;;15.80;99.90;;;;;;6066778;23;20181;-89
2023/09/28 07:36:08;;;;;;;6.22;4.53;;;15.80;99.90;;;;;;6041209;23;20201;-89
2023/09/28 07:38:35;;;;;;;5.40;4.32;;;15.80;99.90;;;;;;6041874;23;20180;-89
2023/09/28 07:41:02;;;;;;;8.40;4.60;;;15.90;99.90;;;;;;6042072;23;20185;-89
2023/09/28 07:43:30;;;;;;;7.47;4.05;;;16.00;99.90;;;;;;6066245;23;20628;-89
2023/09/28 07:45:57;;;;;;;5.43;3.60;;;16.20;99.90;;;;;;6067850;23;20237;-89
2023/09/28 07:48:24;;;;;;;5.25;3.83;;;16.30;99.90;;;;;;6072146;23;20232;-89
2023/09/28 07:50:52;;;;;;;6.47;4.07;;;16.50;99.90;;;;;;6045432;23;20205;-90
2023/09/28 07:53:20;;;;;;;5.32;3.60;;;16.60;99.90;;;;;;6065506;23;20181;-89
2023/09/28 07:55:47;;;;;;;7.45;3.88;;;16.80;99.90;;;;;;6066336;23;20201;-89
2023/09/28 07:58:15;;;;;;;4.47;3.63;;;17.00;99.90;;;;;;6067312;23;20173;-89
2023/09/28 08:00:42;;;;;;;5.10;3.53;;;17.10;99.90;;;;;;6041671;23;20632;-89
2023/09/28 08:03:09;;;;;;;7.07;3.90;;;17.30;99.90;;;;;;6018454;23;20252;-89
2023/09/28 08:05:36;;;;;;;4.50;3.65;;;17.40;99.90;;;;;;6066233;23;20208;-89
2023/09/28 08:08:05;;;;;;;4.93;3.70;;;17.50;99.90;;;;;;6042357;23;20651;-89
2023/09/28 08:10:33;;;;;;;5.68;3.30;;;17.60;99.70;;;;;;6066794;23;20213;-89
2023/09/28 08:13:00;;;;;;;6.75;3.80;;;17.70;98.60;;;;;;6066202;23;20233;-89
2023/09/28 08:15:27;;;;;;;4.50;3.33;;;17.90;97.60;;;;;;6066662;23;20197;-89
2023/09/28 08:17:54;;;;;;;6.57;3.65;;;17.90;97.60;;;;;;6067010;23;20178;-89
2023/09/28 08:20:22;;;;;;;6.43;3.83;;;18.10;96.40;;;;;;6066760;23;20609;-88
2023/09/28 08:22:48;;;;;;;5.13;3.90;;;18.30;95.90;;;;;;6042477;23;20173;-88
2023/09/28 08:25:18;;;;;;;3.95;3.55;;;18.30;95.90;;;;;;6066534;23;20174;-89
2023/09/28 08:27:44;;;;;;;4.05;3.65;;;18.40;96.20;;;;;;6066954;23;20173;-89
2023/09/28 08:30:12;;;;;;;6.30;3.97;;;18.40;96.30;;;;;;6067038;23;20188;-89
2023/09/28 08:32:39;;;;;;;6.03;4.07;;;18.60;95.20;;;;;;6067069;23;20180;-89
2023/09/28 08:35:10;;;;;;;4.82;4.00;;;18.60;94.90;;;;;;6066921;23;20637;-89
2023/09/28 08:37:36;;;;;;;6.03;4.05;;;18.90;94.50;;;;;;6043050;23;20181;-88
2023/09/28 08:40:04;;;;;;;5.32;3.83;;;18.90;94.40;;;;;;6066718;23;20488;-88
2023/09/28 08:42:34;;;;;;;6.00;4.47;;;18.90;94.30;;;;;;6067350;23;20173;-89
2023/09/28 08:45:02;;;;;;;5.63;4.40;;;19.10;92.70;;;;;;6065921;23;20240;-88
2023/09/28 08:47:34;;;;;;;8.98;4.47;;;19.30;92.50;;;;;;6066948;23;20188;-89
2023/09/28 08:50:02;;;;;;;6.97;4.20;;;19.40;91.30;;;;;;6041083;23;20181;-88
2023/09/28 08:52:30;;;;;;;7.50;3.97;;;19.50;91.10;;;;;;6042290;23;20268;-89
2023/09/28 08:54:58;;;;;;;7.43;4.38;;;19.70;88.40;;;;;;6040458;23;20199;-88
2023/09/28 08:57:27;;;;;;;7.18;4.63;;;19.90;88.00;;;;;;6066739;23;20180;-89
2023/09/28 08:59:58;;;;;;;5.88;4.78;;;20.10;80.90;;;;;;6067202;23;20177;-88
2023/09/28 09:02:26;;;;;;;5.28;4.13;;;20.40;83.30;;;;;;6066367;23;20184;-88
2023/09/28 09:04:54;;;;;;;9.77;4.30;;;20.50;77.20;;;;;;6066197;23;20216;-89
2023/09/28 09:07:22;;;;;;;9.93;4.93;;;20.60;74.60;;;;;;6041440;23;20181;-89
2023/09/28 09:09:49;;;;;;;6.22;4.57;;;21.00;68.40;;;;;;6066911;23;20601;-89
2023/09/28 09:12:16;;;;;;;7.10;4.40;;;21.80;57.60;;;;;;6066593;23;20177;-89
2023/09/28 09:14:43;;;;;;;5.97;4.70;;;22.50;46.10;;;;;;6041360;23;20213;-87
2023/09/28 09:17:11;;;;;;;6.95;4.57;;;23.40;39.20;;;;;;6066430;23;20196;-87
2023/09/28 09:19:38;;;;;;;7.60;4.53;;;24.20;35.60;;;;;;6066949;23;20172;-87
2023/09/28 09:22:05;;;;;;;5.93;4.70;;;24.70;28.80;;;;;;6017071;23;20165;-87
2023/09/28 09:24:32;;;;;;;6.07;4.88;;;24.90;25.10;;;;;;6066272;23;20177;-87
2023/09/28 09:26:59;;;;;;;6.53;4.47;;;25.20;24.50;;;;;;6066099;23;20181;-87
2023/09/28 09:29:27;;;;;;;7.82;5.20;;;25.50;21.60;;;;;;6067058;23;20183;-87
2023/09/28 09:31:54;;;;;;;7.82;4.28;;;25.90;20.40;;;;;;6066679;23;20180;-87
2023/09/28 09:34:24;;;;;;;5.03;4.53;;;26.90;17.60;;;;;;6041085;23;20208;-87
2023/09/28 09:36:53;;;;;;;5.53;4.50;;;27.40;17.80;;;;;;6066576;23;20507;-88
2023/09/28 09:39:24;;;;;;;6.07;4.97;;;27.80;15.60;;;;;;6041463;23;20177;-90
2023/09/28 09:41:51;;;;;;;8.38;5.57;;;28.40;14.30;;;;;;6065786;23;20620;-90
2023/09/28 09:44:20;;;;;;;6.07;5.35;;;29.00;12.00;;;;;;6017681;23;20181;-90
2023/09/28 09:46:48;;;;;;;6.35;5.75;;;28.90;13.00;;;;;;6066973;23;20181;-90
2023/09/28 09:49:16;;;;;;;10.02;5.85;;;28.70;12.20;;;;;;6067340;23;20184;-90
2023/09/28 09:51:47;;;;;;;5.90;5.40;;;28.90;12.50;;;;;;6040787;23;20279;-90
2023/09/28 09:54:19;;;;;;;5.68;5.18;;;29.40;11.40;;;;;;6065664;23;20260;-90
2023/09/28 09:56:53;;;;;;;6.32;5.70;;;29.80;9.70;;;;;;6042330;23;20211;-89
2023/09/28 09:59:21;;;;;;;5.70;5.20;;;30.30;9.20;;;;;;6067812;23;20161;-89
2023/09/28 10:01:49;;;;;;;6.65;5.15;;;29.70;9.70;;;;;;6044176;23;20496;-89
2023/09/28 10:04:17;;;;;;;8.32;5.40;;;29.00;10.70;;;;;;6068130;23;20517;-89
2023/09/28 10:06:48;;;;;;;6.95;5.28;;;28.60;12.40;;;;;;6042852;23;20680;-89
2023/09/28 10:09:17;;;;;;;6.80;5.47;;;28.40;12.50;;;;;;6068933;23;20511;-89
2023/09/28 10:11:46;;;;;;;6.60;5.43;;;28.20;12.00;;;;;;6043912;23;20555;-89
2023/09/28 10:14:15;;;;;;;5.90;5.40;;;28.20;13.10;;;;;;6043239;23;20259;-89
2023/09/28 10:16:43;;;;;;;6.65;6.05;;;28.00;13.40;;;;;;6068780;23;20207;-89
2023/09/28 10:19:15;;;;;;;6.05;5.45;;;28.00;14.40;;;;;;6068516;23;20173;-89
2023/09/28 10:21:42;;;;;;;6.25;5.65;;;28.30;14.70;;;;;;6068968;23;20185;-89
2023/09/28 10:24:12;;;;;;;5.78;5.05;;;29.00;11.50;;;;;;6068012;23;20208;-89
2023/09/28 10:26:43;;;;;;;6.45;5.15;;;29.70;10.50;;;;;;6043572;23;20173;-89
2023/09/28 10:29:12;;;;;;;6.05;5.18;;;29.70;9.40;;;;;;6044504;23;20530;-89
2023/09/28 10:31:40;;;;;;;6.03;5.40;;;30.30;8.60;;;;;;6068340;23;20183;-89
2023/09/28 10:34:09;;;;;;;7.63;5.43;;;29.10;14.20;;;;;;6067645;23;20233;-89
2023/09/28 10:36:38;;;;;;;5.18;4.72;;;28.20;12.40;;;;;;6068321;23;20208;-89
2023/09/28 10:39:13;;;;;;;5.65;4.90;;;27.50;15.10;;;;;;6068666;23;20260;-89
2023/09/28 10:41:41;;;;;;;7.30;5.13;;;27.80;15.50;;;;;;6068416;23;20859;-89
2023/09/28 10:44:16;;;;;;;5.50;5.00;;;27.50;15.40;;;;;;6067676;23;20557;-89
2023/09/28 10:46:43;;;;;;;6.55;4.90;;;27.00;17.10;;;;;;6067691;23;20183;-89
2023/09/28 10:49:14;;;;;;;6.53;5.05;;;26.70;16.90;;;;;;6067619;23;20176;-89
2023/09/28 10:51:41;;;;;;;5.72;5.18;;;26.50;17.80;;;;;;6067531;23;20197;-89
2023/09/28 10:54:10;;;;;;;6.55;5.22;;;26.30;15.70;;;;;;6042170;23;20678;-89
2023/09/28 10:56:37;;;;;;;4.90;4.50;;;26.30;15.70;;;;;;6042639;23;20192;-89
2023/09/28 10:59:06;;;;;;;7.55;4.88;;;26.40;14.80;;;;;;6067395;23;20177;-89
2023/09/28 11:01:33;;;;;;;7.28;5.10;;;26.10;14.70;;;;;;6067119;23;20507;-88
2023/09/28 11:04:00;;;;;;;6.50;5.00;;;25.90;15.80;;;;;;6067133;23;20177;-88
2023/09/28 11:06:28;;;;;;;5.60;5.05;;;25.60;17.20;;;;;;6067045;23;20478;-88
2023/09/28 11:08:57;;;;;;;4.93;4.22;;;25.40;15.90;;;;;;6067289;23;20510;-88
2023/09/28 11:11:26;;;;;;;7.15;4.72;;;25.80;14.50;;;;;;6066957;23;20180;-85
2023/09/28 11:13:53;;;;;;;6.28;4.30;;;25.40;15.80;;;;;;6067618;23;20255;-85
2023/09/28 11:16:20;;;;;;;9.82;4.82;;;25.30;16.60;;;;;;6067363;23;20201;-88
2023/09/28 11:18:48;;;;;;;10.32;4.65;;;25.10;15.40;;;;;;6042255;23;20177;-87
2023/09/28 11:21:16;;;;;;;7.10;4.35;;;24.90;15.50;;;;;;6067153;23;20704;-88
2023/09/28 11:23:43;;;;;;;5.93;4.32;;;25.00;17.70;;;;;;6066698;23;20543;-90
2023/09/28 11:26:11;;;;;;;4.82;4.10;;;24.90;15.70;;;;;;6067497;23;20181;-90
2023/09/28 11:28:45;;;;;;;4.93;4.22;;;25.00;17.30;;;;;;6041963;23;20621;-90
2023/09/28 11:31:14;;;;;;;6.35;4.25;;;25.00;15.90;;;;;;6066366;23;20165;-89
2023/09/28 11:33:44;;;;;;;6.22;4.30;;;25.10;16.10;;;;;;6066847;23;20184;-89
2023/09/28 11:36:14;;;;;;;5.45;4.32;;;25.10;15.50;;;;;;6041353;23;21078;-89
2023/09/28 11:38:42;;;;;;;10.43;6.82;;;25.00;17.10;;;;;;6067229;23;20177;-89
2023/09/28 11:41:09;;;;;;;8.15;5.53;;;25.10;16.40;;;;;;6065097;23;20176;-89
2023/09/28 11:43:47;;;;;;;5.05;4.55;;;25.10;15.40;;;;;;6040011;23;20256;-89
2023/09/28 11:46:18;;;;;;;4.38;3.92;;;24.90;14.80;;;;;;6041099;23;20181;-89
2023/09/28 11:48:45;;;;;;;6.38;4.82;;;24.90;15.70;;;;;;6066265;23;20543;-88
2023/09/28 11:51:12;;;;;;;8.95;4.70;;;24.90;16.70;;;;;;6064134;23;20193;-88
2023/09/28 11:53:43;;;;;;;8.38;5.10;;;24.90;17.60;;;;;;6064670;23;20201;-89
2023/09/28 11:56:10;;;;;;;5.03;3.92;;;24.90;17.20;;;;;;6065723;23;20197;-88
2023/09/28 11:58:37;;;;;;;7.20;4.50;;;24.90;16.90;;;;;;6065817;23;20184;-88
2023/09/28 12:01:05;;;;;;;5.47;4.07;;;24.80;14.10;;;;;;6039929;23;20256;-88
2023/09/28 12:03:33;;;;;;;5.90;4.28;;;24.90;17.10;;;;;;6041581;23;20184;-88
2023/09/28 12:06:00;;;;;;;6.60;3.90;;;25.10;16.40;;;;;;6066333;23;20181;-88
2023/09/28 12:08:28;;;;;;;6.28;4.82;;;25.30;14.30;;;;;;6066548;23;20624;-88
2023/09/28 12:10:57;;;;;;;5.22;4.20;;;25.40;14.30;;;;;;6041602;23;20264;-88
2023/09/28 12:13:24;;;;;;;4.70;4.20;;;25.60;14.50;;;;;;6041940;23;20173;-88
2023/09/28 12:15:51;;;;;;;5.22;3.70;;;25.70;14.50;;;;;;6065837;23;20196;-88
2023/09/28 12:18:20;;;;;;;5.55;3.70;;;25.80;14.50;;;;;;6041684;23;20244;-88
2023/09/28 12:20:47;;;;;;;4.93;3.55;;;25.60;14.40;;;;;;6066584;23;20188;-88
2023/09/28 12:23:14;;;;;;;6.07;3.60;;;25.50;14.00;;;;;;6066398;23;20184;-88
2023/09/28 12:25:41;;;;;;;3.42;3.13;;;25.30;13.30;;;;;;6066626;23;20203;-88
2023/09/28 12:28:08;;;;;;;4.35;3.33;;;25.10;13.20;;;;;;6040947;23;20177;-88
2023/09/28 12:30:35;;;;;;;3.78;3.47;;;25.20;12.80;;;;;;6066820;23;20807;-88
2023/09/28 12:33:02;;;;;;;4.90;3.92;;;25.20;14.20;;;;;;6040639;23;20184;-88
2023/09/28 12:35:30;;;;;;;4.40;3.72;;;25.20;14.20;;;;;;6066158;23;20699;-88
2023/09/28 12:37:57;;;;;;;4.40;3.50;;;25.20;14.30;;;;;;6041079;23;20684;-88
2023/09/28 12:40:24;;;;;;;3.90;3.50;;;25.10;14.20;;;;;;6040559;23;20181;-88
2023/09/28 12:42:51;;;;;;;6.65;4.60;;;25.00;14.20;;;;;;5994553;23;20183;-88
2023/09/28 12:45:18;;;;;;;3.78;3.40;;;25.00;15.30;;;;;;6041581;23;20181;-88
2023/09/28 12:47:46;;;;;;;4.47;3.33;;;24.90;14.50;;;;;;6066835;23;20609;-87
2023/09/28 12:50:14;;;;;;;3.80;3.20;;;24.80;14.10;;;;;;6041111;23;20177;-88
2023/09/28 12:52:42;;;;;;;5.50;3.38;;;24.80;14.10;;;;;;6065719;23;20180;-88
2023/09/28 12:55:10;;;;;;;4.80;3.53;;;24.70;14.00;;;;;;6065729;23;20178;-88
2023/09/28 12:57:37;;;;;;;6.15;3.33;;;24.70;14.00;;;;;;6041268;23;20208;-88
2023/09/28 13:00:08;;;;;;;6.03;4.00;;;24.70;14.00;;;;;;6040585;23;20173;-87